Time;durP1;ratioP1;P1;durP2;ratioP2;P2;SDS_P1;SDS_P2;PMS_P1;PMS_P2;Temp;Humidity;BMP_temperature;BMP_pressure;BME280_temperature;BME280_humidity;BME280_pressure;Samples;Min_cycle;Max_cycle;Signal;HPM_P1;HPM_P2
2021/03/30 00:00:29;;;;;;;6.88;4.18;;;11.20;59.90;;;;;;2072098;28;20062;-83
2021/03/30 00:01:30;;;;;;;6.68;4.03;;;11.20;60.00;;;;;;2072493;28;20487;-83
2021/03/30 00:02:30;;;;;;;7.53;4.45;;;11.10;60.00;;;;;;2080594;28;20032;-84
2021/03/30 00:03:31;;;;;;;6.38;4.10;;;11.10;60.00;;;;;;2072856;28;20037;-83
2021/03/30 00:04:31;;;;;;;6.10;3.95;;;11.10;60.10;;;;;;2080419;28;20499;-84
2021/03/30 00:05:32;;;;;;;7.05;4.35;;;11.10;60.10;;;;;;2073085;28;20161;-83
2021/03/30 00:06:33;;;;;;;7.00;3.90;;;11.10;60.20;;;;;;2072601;28;20076;-83
2021/03/30 00:07:33;;;;;;;7.97;4.47;;;11.10;60.20;;;;;;2064458;28;20037;-84
2021/03/30 00:08:34;;;;;;;6.47;4.20;;;11.10;60.30;;;;;;2056575;28;20025;-84
2021/03/30 00:09:35;;;;;;;7.70;4.70;;;11.10;60.30;;;;;;2059490;28;20045;-83
2021/03/30 00:10:40;;;;;;;7.90;4.78;;;11.10;60.30;;;;;;2064605;28;20023;-83
2021/03/30 00:11:41;;;;;;;7.05;4.13;;;11.00;60.30;;;;;;2075447;28;20026;-83
2021/03/30 00:12:42;;;;;;;5.50;3.85;;;11.10;60.30;;;;;;2084022;28;20515;-83
2021/03/30 00:13:43;;;;;;;7.28;4.43;;;11.10;60.30;;;;;;2073003;28;20058;-83
2021/03/30 00:14:44;;;;;;;7.18;4.63;;;11.00;60.30;;;;;;2071222;28;20088;-83
2021/03/30 00:15:45;;;;;;;6.75;4.28;;;11.00;60.30;;;;;;2064367;28;20114;-84
2021/03/30 00:16:46;;;;;;;7.05;4.43;;;11.00;60.30;;;;;;2072660;28;20030;-83
2021/03/30 00:17:46;;;;;;;6.32;4.30;;;11.00;60.40;;;;;;2078034;28;20558;-83
2021/03/30 00:18:47;;;;;;;7.93;5.00;;;11.00;60.40;;;;;;2080692;28;20036;-83
2021/03/30 00:19:47;;;;;;;7.70;4.63;;;11.00;60.50;;;;;;2085098;28;20033;-83
2021/03/30 00:20:48;;;;;;;7.65;4.40;;;11.00;60.50;;;;;;2072618;28;20026;-84
2021/03/30 00:21:49;;;;;;;10.07;5.10;;;11.00;60.50;;;;;;2064310;28;20405;-83
2021/03/30 00:22:49;;;;;;;7.95;4.75;;;11.00;60.60;;;;;;2072426;28;20038;-83
2021/03/30 00:23:50;;;;;;;7.97;4.60;;;11.00;60.60;;;;;;2072645;28;20058;-84
2021/03/30 00:24:51;;;;;;;6.57;4.18;;;11.00;60.70;;;;;;2084020;28;20067;-84
2021/03/30 00:25:51;;;;;;;6.55;4.18;;;11.00;60.70;;;;;;2071784;28;20305;-84
2021/03/30 00:26:52;;;;;;;6.70;4.32;;;11.00;60.70;;;;;;2061702;28;20054;-84
2021/03/30 00:27:53;;;;;;;6.88;4.50;;;10.90;60.80;;;;;;2072477;28;20504;-84
2021/03/30 00:28:53;;;;;;;8.35;4.80;;;10.90;60.80;;;;;;2076294;28;20029;-83
2021/03/30 00:29:54;;;;;;;7.10;4.70;;;10.90;60.90;;;;;;2055783;28;20097;-83
2021/03/30 00:30:54;;;;;;;9.88;4.80;;;10.90;60.90;;;;;;2048277;28;20066;-84
2021/03/30 00:31:55;;;;;;;7.82;4.43;;;10.90;61.00;;;;;;2048329;28;20046;-84
2021/03/30 00:32:56;;;;;;;7.20;4.75;;;10.90;61.10;;;;;;2048571;28;20035;-84
2021/03/30 00:33:56;;;;;;;7.70;4.60;;;10.90;61.20;;;;;;2047537;28;20493;-83
2021/03/30 00:34:57;;;;;;;8.10;4.97;;;10.80;61.30;;;;;;2055906;28;20023;-83
2021/03/30 00:35:58;;;;;;;6.90;4.65;;;10.90;61.30;;;;;;2063811;28;20529;-84
2021/03/30 00:36:58;;;;;;;7.47;4.60;;;10.80;61.30;;;;;;2064544;28;20034;-83
2021/03/30 00:37:59;;;;;;;6.72;4.53;;;10.80;61.40;;;;;;2048542;29;20039;-84
2021/03/30 00:38:59;;;;;;;8.23;4.70;;;10.80;61.60;;;;;;2048399;28;20501;-84
2021/03/30 00:40:00;;;;;;;7.78;4.95;;;10.80;61.60;;;;;;2064126;28;20168;-83
2021/03/30 00:41:01;;;;;;;6.65;4.70;;;10.80;61.60;;;;;;2063058;28;20022;-84
2021/03/30 00:42:02;;;;;;;6.65;4.63;;;10.70;61.60;;;;;;2062747;28;20115;-84
2021/03/30 00:43:03;;;;;;;8.07;5.00;;;10.70;61.70;;;;;;2079743;28;20021;-83
2021/03/30 00:44:09;;;;;;;8.13;4.57;;;10.70;61.70;;;;;;2072416;28;20064;-84
2021/03/30 00:45:12;;;;;;;6.75;4.47;;;10.70;61.80;;;;;;2065332;28;20125;-83
2021/03/30 00:46:15;;;;;;;7.63;4.53;;;10.70;61.90;;;;;;2080551;28;20030;-83
2021/03/30 00:47:17;;;;;;;7.15;4.68;;;10.70;61.90;;;;;;2074074;28;20034;-84
2021/03/30 00:48:26;;;;;;;8.30;5.07;;;10.70;61.90;;;;;;2065932;28;20034;-83
2021/03/30 00:49:29;;;;;;;7.47;4.95;;;10.60;61.90;;;;;;2066518;28;20050;-83
2021/03/30 00:50:32;;;;;;;8.07;5.00;;;10.60;61.90;;;;;;2073926;28;20026;-83
2021/03/30 00:51:33;;;;;;;8.48;4.80;;;10.60;62.00;;;;;;2077548;28;20045;-84
2021/03/30 00:52:37;;;;;;;8.05;4.80;;;10.60;62.00;;;;;;2065595;28;20113;-83
2021/03/30 00:53:37;;;;;;;7.50;4.90;;;10.60;62.10;;;;;;2057756;28;20030;-82
2021/03/30 00:54:38;;;;;;;8.80;4.85;;;10.60;62.10;;;;;;2057113;28;20031;-83
2021/03/30 00:55:39;;;;;;;8.13;4.97;;;10.50;62.20;;;;;;2057764;28;20097;-83
2021/03/30 00:56:40;;;;;;;8.15;4.90;;;10.50;62.30;;;;;;2067210;28;20038;-83
2021/03/30 00:57:41;;;;;;;8.07;5.05;;;10.50;62.30;;;;;;2064171;28;20057;-83
2021/03/30 00:58:42;;;;;;;9.32;5.45;;;10.50;62.40;;;;;;2065836;28;20031;-83
2021/03/30 00:59:42;;;;;;;7.88;5.32;;;10.40;62.50;;;;;;2055066;28;20034;-83
2021/03/30 01:00:43;;;;;;;8.27;5.38;;;10.40;62.60;;;;;;2057822;28;20034;-84
2021/03/30 01:01:45;;;;;;;8.98;5.43;;;10.40;62.70;;;;;;2070080;28;20116;-83
2021/03/30 01:02:46;;;;;;;9.70;5.75;;;10.40;62.70;;;;;;2067958;28;20503;-83
2021/03/30 01:03:47;;;;;;;8.32;5.38;;;10.40;62.80;;;;;;2065778;28;20094;-82
2021/03/30 01:04:47;;;;;;;7.82;5.22;;;10.40;62.90;;;;;;2058827;28;20038;-83
2021/03/30 01:05:48;;;;;;;8.40;5.38;;;10.40;63.00;;;;;;2061154;28;20125;-83
2021/03/30 01:06:49;;;;;;;7.78;5.18;;;10.40;63.10;;;;;;2065854;28;20082;-83
2021/03/30 01:08:17;;;;;;;7.35;4.97;;;10.30;63.10;;;;;;2073766;28;20029;-83
2021/03/30 01:09:36;;;;;;;7.93;4.80;;;10.30;63.20;;;;;;2069886;28;20116;-83
2021/03/30 01:11:01;;;;;;;7.38;5.07;;;10.30;63.20;;;;;;2068090;28;20046;-83
2021/03/30 01:12:25;;;;;;;9.40;5.20;;;10.20;63.20;;;;;;2075753;28;20044;-83
2021/03/30 01:14:03;;;;;;;8.85;5.03;;;10.30;63.30;;;;;;2074489;28;20045;-83
2021/03/30 01:15:16;;;;;;;8.07;4.82;;;10.20;63.30;;;;;;2081549;28;20033;-83
2021/03/30 01:16:19;;;;;;;7.40;4.93;;;10.20;63.30;;;;;;2081363;28;20128;-83
2021/03/30 01:17:28;;;;;;;8.40;5.03;;;10.20;63.30;;;;;;2082518;28;20079;-83
2021/03/30 01:18:35;;;;;;;7.78;4.93;;;10.20;63.40;;;;;;2081498;28;20033;-83
2021/03/30 01:20:04;;;;;;;8.30;5.00;;;10.20;63.50;;;;;;2073435;28;20066;-83
2021/03/30 01:21:35;;;;;;;8.73;5.40;;;10.10;63.60;;;;;;2080597;28;20159;-83
2021/03/30 01:22:38;;;;;;;7.55;4.90;;;10.10;63.60;;;;;;2081627;28;20120;-84
2021/03/30 01:24:05;;;;;;;7.22;4.65;;;10.10;63.70;;;;;;2073111;28;20022;-82
2021/03/30 01:25:07;;;;;;;8.23;5.18;;;10.00;63.70;;;;;;2074253;28;20041;-83
2021/03/30 01:26:18;;;;;;;8.88;5.35;;;10.00;63.70;;;;;;2074724;28;20400;-83
2021/03/30 01:27:52;;;;;;;8.70;5.47;;;10.10;63.90;;;;;;2068078;28;20509;-83
2021/03/30 01:29:24;;;;;;;8.63;4.90;;;10.00;63.90;;;;;;2081446;28;20029;-83
2021/03/30 01:30:26;;;;;;;7.13;4.72;;;10.00;64.00;;;;;;2081741;28;20042;-83
2021/03/30 01:31:31;;;;;;;8.35;5.32;;;10.00;64.60;;;;;;2073672;28;20077;-83
2021/03/30 01:32:35;;;;;;;7.13;4.65;;;10.00;64.10;;;;;;2072590;28;20034;-83
2021/03/30 01:33:39;;;;;;;8.93;5.07;;;10.00;64.20;;;;;;2073436;28;20068;-83
2021/03/30 01:34:43;;;;;;;8.77;5.55;;;9.90;64.20;;;;;;2073962;28;20127;-82
2021/03/30 01:35:44;;;;;;;8.65;5.25;;;9.90;64.20;;;;;;2073224;28;20026;-83
2021/03/30 01:36:46;;;;;;;8.65;5.38;;;9.90;64.30;;;;;;2078277;28;20081;-83
2021/03/30 01:37:48;;;;;;;8.52;5.80;;;9.90;64.40;;;;;;2065889;28;20047;-83
2021/03/30 01:38:51;;;;;;;9.82;6.18;;;9.90;64.40;;;;;;2064971;28;20034;-83
2021/03/30 01:39:55;;;;;;;9.75;5.72;;;9.90;64.50;;;;;;2066288;28;20387;-83
2021/03/30 01:40:58;;;;;;;10.23;6.30;;;9.90;64.60;;;;;;2074672;28;20080;-83
2021/03/30 01:41:59;;;;;;;9.90;6.00;;;9.90;64.60;;;;;;2078001;28;20026;-83
2021/03/30 01:43:02;;;;;;;9.73;6.15;;;9.90;64.70;;;;;;2075268;28;20392;-82
2021/03/30 01:44:05;;;;;;;10.05;6.00;;;9.90;64.70;;;;;;2082203;28;20082;-82
2021/03/30 01:45:06;;;;;;;7.90;5.32;;;9.80;64.70;;;;;;2078171;28;20034;-83
2021/03/30 01:46:07;;;;;;;10.15;6.10;;;9.90;64.80;;;;;;2088778;28;20038;-83
2021/03/30 01:47:08;;;;;;;10.00;6.13;;;9.90;64.90;;;;;;2091830;28;20012;-83
2021/03/30 01:48:11;;;;;;;9.82;5.90;;;9.80;64.80;;;;;;2084091;28;20022;-83
2021/03/30 01:49:14;;;;;;;9.90;5.85;;;9.80;64.90;;;;;;2081705;28;20026;-83
2021/03/30 01:50:15;;;;;;;8.43;5.63;;;9.80;64.90;;;;;;2075187;28;20026;-83
2021/03/30 01:51:17;;;;;;;9.10;5.97;;;9.80;64.90;;;;;;2079508;28;20017;-83
2021/03/30 01:52:19;;;;;;;10.50;6.10;;;9.80;65.00;;;;;;2073882;28;20029;-84
2021/03/30 01:53:22;;;;;;;8.80;5.93;;;9.80;65.00;;;;;;2077297;28;20487;-82
2021/03/30 01:54:24;;;;;;;10.07;6.20;;;9.80;65.10;;;;;;2084988;28;20081;-83
2021/03/30 01:55:25;;;;;;;8.90;5.85;;;9.80;65.10;;;;;;2068013;28;20034;-83
2021/03/30 01:56:29;;;;;;;8.73;5.88;;;9.80;65.20;;;;;;2075721;28;20015;-82
2021/03/30 01:57:31;;;;;;;9.27;6.00;;;9.80;65.30;;;;;;2088710;28;20013;-84
2021/03/30 01:58:32;;;;;;;9.55;5.82;;;9.70;65.30;;;;;;2090254;28;20044;-83
2021/03/30 01:59:33;;;;;;;9.35;6.20;;;9.70;65.40;;;;;;2077747;28;20040;-83
2021/03/30 02:00:36;;;;;;;11.02;6.57;;;9.70;65.40;;;;;;2080776;28;20076;-83
2021/03/30 02:01:38;;;;;;;10.02;6.18;;;9.70;65.60;;;;;;2072576;28;20025;-83
2021/03/30 02:02:42;;;;;;;10.20;6.40;;;9.70;65.60;;;;;;2073748;28;20033;-82
2021/03/30 02:03:45;;;;;;;10.30;6.22;;;9.70;65.60;;;;;;2075257;28;20419;-83
2021/03/30 02:04:46;;;;;;;10.07;6.18;;;9.70;65.60;;;;;;2073489;28;20099;-83
2021/03/30 02:05:47;;;;;;;10.15;6.45;;;9.60;65.70;;;;;;2076616;28;20032;-83
2021/03/30 02:06:49;;;;;;;10.07;6.30;;;9.60;65.70;;;;;;2057382;28;20121;-83
2021/03/30 02:07:59;;;;;;;10.27;6.68;;;9.60;65.80;;;;;;2057593;28;20166;-83
2021/03/30 02:09:05;;;;;;;10.38;6.20;;;9.60;65.80;;;;;;2067374;28;20066;-83
2021/03/30 02:10:14;;;;;;;9.80;6.25;;;9.60;65.90;;;;;;2074434;28;20025;-83
2021/03/30 02:11:24;;;;;;;10.38;6.63;;;9.60;65.90;;;;;;2079776;28;20033;-83
2021/03/30 02:12:30;;;;;;;10.55;6.30;;;9.60;65.90;;;;;;2067299;28;20031;-83
2021/03/30 02:14:38;;;;;;;8.52;5.85;;;9.50;66.00;;;;;;2071615;28;20049;-83
2021/03/30 02:15:39;;;;;;;10.15;6.25;;;9.50;66.00;;;;;;2077393;28;20026;-83
2021/03/30 02:16:57;;;;;;;10.30;6.53;;;9.50;66.10;;;;;;2075947;28;20046;-84
2021/03/30 02:18:09;;;;;;;9.73;5.93;;;9.50;66.20;;;;;;2089197;28;20014;-83
2021/03/30 02:19:24;;;;;;;9.85;6.03;;;9.50;66.20;;;;;;2098988;28;20029;-82
2021/03/30 02:20:35;;;;;;;10.35;6.15;;;9.40;66.20;;;;;;2076513;28;20030;-84
2021/03/30 02:21:44;;;;;;;9.65;5.97;;;9.50;66.90;;;;;;2081457;28;20531;-84
2021/03/30 02:23:19;;;;;;;10.50;6.43;;;9.40;66.20;;;;;;2073618;28;20101;-84
2021/03/30 02:24:20;;;;;;;9.50;6.03;;;9.40;66.30;;;;;;2074130;28;20133;-84
2021/03/30 02:25:23;;;;;;;9.15;6.00;;;9.40;66.30;;;;;;2065571;28;20042;-84
2021/03/30 02:26:25;;;;;;;9.93;6.13;;;9.30;66.40;;;;;;2058711;28;20023;-84
2021/03/30 02:27:28;;;;;;;9.40;6.10;;;9.30;66.50;;;;;;2057949;28;20047;-84
2021/03/30 02:28:50;;;;;;;10.40;6.30;;;9.30;66.60;;;;;;2057644;28;20434;-83
2021/03/30 02:29:53;;;;;;;10.50;6.30;;;9.30;66.60;;;;;;2069698;28;20046;-84
2021/03/30 02:30:55;;;;;;;9.63;6.05;;;9.30;66.60;;;;;;2074721;28;20032;-84
2021/03/30 02:31:57;;;;;;;9.10;6.30;;;9.30;66.60;;;;;;2073498;28;20030;-84
2021/03/30 02:32:58;;;;;;;9.80;6.10;;;9.20;66.70;;;;;;2074206;28;20081;-83
2021/03/30 02:34:04;;;;;;;10.45;6.57;;;9.20;66.80;;;;;;2057784;28;20113;-84
2021/03/30 02:35:06;;;;;;;9.95;6.45;;;9.20;66.80;;;;;;2066351;28;20475;-84
2021/03/30 02:36:08;;;;;;;9.20;6.05;;;9.20;66.80;;;;;;2083938;28;20037;-84
2021/03/30 02:37:08;;;;;;;10.02;6.22;;;9.20;66.80;;;;;;2082049;28;20503;-84
2021/03/30 02:38:10;;;;;;;10.68;6.82;;;9.20;66.90;;;;;;2083106;28;20021;-83
2021/03/30 02:39:13;;;;;;;10.00;6.45;;;9.20;67.00;;;;;;2073052;28;20034;-84
2021/03/30 02:40:16;;;;;;;9.93;6.82;;;9.10;67.00;;;;;;2072485;28;20117;-84
2021/03/30 02:41:17;;;;;;;8.80;6.25;;;9.10;67.10;;;;;;2066849;28;20054;-84
2021/03/30 02:42:19;;;;;;;10.73;6.68;;;9.10;67.70;;;;;;2081443;28;20410;-84
2021/03/30 02:43:22;;;;;;;9.57;6.13;;;9.20;67.20;;;;;;2087916;28;20017;-84
2021/03/30 02:44:24;;;;;;;9.50;5.97;;;9.10;67.20;;;;;;2089558;28;20017;-83
2021/03/30 02:45:27;;;;;;;9.60;6.25;;;9.10;67.20;;;;;;2080189;28;20021;-83
2021/03/30 02:46:31;;;;;;;11.07;6.45;;;9.10;67.30;;;;;;2075019;28;20026;-84
2021/03/30 02:47:32;;;;;;;9.82;6.50;;;9.20;67.40;;;;;;2074099;28;20026;-83
2021/03/30 02:48:37;;;;;;;10.50;6.75;;;9.10;67.40;;;;;;2078099;28;20026;-83
2021/03/30 02:49:38;;;;;;;11.10;6.75;;;9.10;67.40;;;;;;2081060;28;20491;-83
2021/03/30 02:50:40;;;;;;;9.55;6.47;;;9.10;67.40;;;;;;2085130;28;20149;-83
2021/03/30 02:51:42;;;;;;;9.73;6.53;;;9.10;67.40;;;;;;2081538;28;20057;-83
2021/03/30 02:52:44;;;;;;;9.52;6.35;;;9.10;67.50;;;;;;2070189;28;20566;-84
2021/03/30 02:53:46;;;;;;;10.95;6.70;;;9.10;67.50;;;;;;2073315;28;20034;-84
2021/03/30 02:54:47;;;;;;;11.13;6.95;;;9.10;67.60;;;;;;2072756;28;20030;-83
2021/03/30 02:55:49;;;;;;;11.10;7.20;;;9.10;67.60;;;;;;2067719;28;20061;-84
2021/03/30 02:56:49;;;;;;;10.68;6.30;;;9.10;67.60;;;;;;2065050;28;20361;-84
2021/03/30 02:57:50;;;;;;;11.02;6.88;;;9.00;67.60;;;;;;2074875;28;20032;-83
2021/03/30 02:58:52;;;;;;;11.88;6.90;;;9.00;67.70;;;;;;2072885;28;20045;-83
2021/03/30 02:59:55;;;;;;;11.57;6.43;;;9.00;67.70;;;;;;2073249;28;20596;-83
2021/03/30 03:00:57;;;;;;;12.02;7.05;;;9.00;67.80;;;;;;2072118;28;20026;-83
2021/03/30 03:01:59;;;;;;;9.82;6.65;;;9.00;67.80;;;;;;2072757;28;20134;-84
2021/03/30 03:03:03;;;;;;;10.35;6.53;;;9.00;67.90;;;;;;2081047;28;20018;-83
2021/03/30 03:04:04;;;;;;;10.68;6.65;;;8.90;67.90;;;;;;2081759;28;20087;-83
2021/03/30 03:05:09;;;;;;;10.90;6.82;;;8.90;67.90;;;;;;2080919;28;20462;-83
2021/03/30 03:06:11;;;;;;;10.73;6.72;;;8.90;68.00;;;;;;2081616;28;20510;-83
2021/03/30 03:07:12;;;;;;;10.35;6.63;;;8.90;68.00;;;;;;2080825;28;20112;-83
2021/03/30 03:08:14;;;;;;;11.18;6.85;;;8.90;68.10;;;;;;2074403;28;20639;-84
2021/03/30 03:09:16;;;;;;;10.20;6.82;;;8.90;68.20;;;;;;2081307;28;20107;-84
2021/03/30 03:10:17;;;;;;;10.32;6.57;;;8.90;68.20;;;;;;2081267;28;20146;-83
2021/03/30 03:11:19;;;;;;;11.25;6.95;;;8.90;68.30;;;;;;2081182;28;20053;-83
2021/03/30 03:12:20;;;;;;;10.95;6.97;;;8.90;68.20;;;;;;2076769;28;20037;-83
2021/03/30 03:13:23;;;;;;;11.73;7.25;;;8.90;68.30;;;;;;2072049;28;20110;-83
2021/03/30 03:14:24;;;;;;;11.38;7.30;;;8.80;68.30;;;;;;2081384;28;20034;-83
2021/03/30 03:15:26;;;;;;;11.00;7.13;;;8.80;68.90;;;;;;2077838;28;20029;-83
2021/03/30 03:16:27;;;;;;;10.07;6.85;;;8.90;68.30;;;;;;2073177;28;20029;-83
2021/03/30 03:17:29;;;;;;;11.35;7.57;;;8.80;68.30;;;;;;2080893;28;20032;-83
2021/03/30 03:18:31;;;;;;;12.82;7.15;;;8.80;68.40;;;;;;2081140;28;20579;-83
2021/03/30 03:19:32;;;;;;;11.35;7.30;;;8.80;68.40;;;;;;2081143;28;20029;-83
2021/03/30 03:20:33;;;;;;;11.00;7.03;;;8.70;68.50;;;;;;2087067;28;20119;-83
2021/03/30 03:21:37;;;;;;;12.18;7.57;;;8.70;68.60;;;;;;2080626;28;20121;-83
2021/03/30 03:22:39;;;;;;;12.32;7.22;;;8.70;68.60;;;;;;2072555;28;20510;-83
2021/03/30 03:23:41;;;;;;;11.60;7.40;;;8.70;68.70;;;;;;2072812;28;20022;-83
2021/03/30 03:24:45;;;;;;;11.38;7.15;;;8.70;68.70;;;;;;2076898;28;20093;-82
2021/03/30 03:25:46;;;;;;;11.88;7.28;;;8.70;68.70;;;;;;2079679;28;20112;-84
2021/03/30 03:26:47;;;;;;;12.27;7.70;;;8.70;68.80;;;;;;2081026;28;20025;-84
2021/03/30 03:27:48;;;;;;;12.27;7.70;;;8.70;68.80;;;;;;2080803;28;20633;-84
2021/03/30 03:28:49;;;;;;;10.65;6.85;;;8.70;68.80;;;;;;2072608;28;20030;-83
2021/03/30 03:29:50;;;;;;;10.63;6.80;;;8.70;69.50;;;;;;2072704;28;20538;-84
2021/03/30 03:30:51;;;;;;;11.07;7.03;;;8.70;69.00;;;;;;2072615;28;20026;-84
2021/03/30 03:31:51;;;;;;;11.55;7.13;;;8.70;69.10;;;;;;2080336;28;20585;-84
2021/03/30 03:32:52;;;;;;;10.30;6.70;;;8.70;69.00;;;;;;2064532;28;20160;-84
2021/03/30 03:33:53;;;;;;;12.13;7.43;;;8.70;69.10;;;;;;2064695;28;20055;-84
2021/03/30 03:34:54;;;;;;;11.85;7.65;;;8.60;69.00;;;;;;2072795;28;20128;-84
2021/03/30 03:36:09;;;;;;;13.30;7.68;;;8.70;69.10;;;;;;2072347;28;20034;-85
2021/03/30 03:37:10;;;;;;;12.30;7.80;;;8.60;69.10;;;;;;2074538;28;20026;-84
2021/03/30 03:38:13;;;;;;;11.95;7.43;;;8.60;69.10;;;;;;2072471;28;20504;-83
2021/03/30 03:39:16;;;;;;;11.15;7.10;;;8.60;69.20;;;;;;2080969;28;20037;-82
2021/03/30 03:40:17;;;;;;;12.77;7.47;;;8.60;69.20;;;;;;2088927;28;20387;-82
2021/03/30 03:41:17;;;;;;;12.93;7.68;;;8.60;69.30;;;;;;2080729;28;20033;-82
2021/03/30 03:42:18;;;;;;;12.13;7.47;;;8.60;69.30;;;;;;2064469;28;20049;-82
2021/03/30 03:43:19;;;;;;;12.07;7.45;;;8.60;69.30;;;;;;2072186;28;20029;-82
2021/03/30 03:44:19;;;;;;;12.88;7.80;;;8.60;69.30;;;;;;2080676;28;20021;-82
2021/03/30 03:45:20;;;;;;;11.80;7.20;;;8.60;69.30;;;;;;2080640;28;20037;-82
2021/03/30 03:46:21;;;;;;;11.85;7.30;;;8.60;69.30;;;;;;2080466;28;20022;-82
2021/03/30 03:47:22;;;;;;;11.52;7.18;;;8.60;69.40;;;;;;2072224;28;20496;-82
2021/03/30 03:48:23;;;;;;;12.73;7.57;;;8.60;69.50;;;;;;2079946;28;20021;-82
2021/03/30 03:49:25;;;;;;;12.80;8.10;;;8.60;69.50;;;;;;2072822;28;20038;-83
2021/03/30 03:50:26;;;;;;;11.82;7.65;;;8.50;69.50;;;;;;2064806;28;20030;-82
2021/03/30 03:51:32;;;;;;;12.18;7.50;;;8.50;69.60;;;;;;2064781;28;20495;-82
2021/03/30 03:52:44;;;;;;;12.55;7.38;;;8.50;69.60;;;;;;2081856;28;20032;-83
2021/03/30 03:53:47;;;;;;;11.75;7.20;;;8.50;69.70;;;;;;2089139;28;20098;-82
2021/03/30 03:54:49;;;;;;;11.43;7.50;;;8.50;69.70;;;;;;2077159;28;20018;-83
2021/03/30 03:55:54;;;;;;;10.85;7.07;;;8.50;69.70;;;;;;2081148;28;20068;-82
2021/03/30 03:57:02;;;;;;;12.52;7.53;;;8.50;69.80;;;;;;2080859;28;20028;-83
2021/03/30 03:58:06;;;;;;;11.02;7.00;;;8.50;70.40;;;;;;2073249;28;20400;-82
2021/03/30 03:59:15;;;;;;;11.80;7.07;;;8.50;69.80;;;;;;2081174;28;20385;-83
2021/03/30 04:00:21;;;;;;;11.48;7.20;;;8.50;69.80;;;;;;2081876;28;20045;-83
2021/03/30 04:01:31;;;;;;;13.20;7.50;;;8.50;69.80;;;;;;2088160;28;20020;-83
2021/03/30 04:02:47;;;;;;;11.68;7.03;;;8.50;69.90;;;;;;2085061;28;20025;-83
2021/03/30 04:03:52;;;;;;;10.82;7.30;;;8.50;69.90;;;;;;2083278;28;20052;-82
2021/03/30 04:05:20;;;;;;;11.45;7.38;;;8.40;69.80;;;;;;2088425;28;20025;-82
2021/03/30 04:06:22;;;;;;;13.80;7.50;;;8.40;69.80;;;;;;2089356;28;20476;-83
2021/03/30 04:07:28;;;;;;;12.10;7.40;;;8.40;69.80;;;;;;2080117;28;20037;-82
2021/03/30 04:08:33;;;;;;;11.65;7.22;;;8.40;70.40;;;;;;2073598;28;20117;-82
2021/03/30 04:09:35;;;;;;;12.88;7.60;;;8.40;69.80;;;;;;2080313;28;20499;-82
2021/03/30 04:10:41;;;;;;;13.30;7.97;;;8.40;69.90;;;;;;2080904;28;20462;-82
2021/03/30 04:11:43;;;;;;;11.68;7.28;;;8.40;70.00;;;;;;2078193;28;20076;-82
2021/03/30 04:12:45;;;;;;;12.45;7.25;;;8.40;70.00;;;;;;2072866;28;20081;-83
2021/03/30 04:13:48;;;;;;;12.88;7.80;;;8.40;70.00;;;;;;2072624;28;20379;-83
2021/03/30 04:14:49;;;;;;;14.70;8.07;;;8.40;70.00;;;;;;2080868;28;20029;-83
2021/03/30 04:15:50;;;;;;;12.95;8.02;;;8.40;70.10;;;;;;2071986;28;20411;-83
2021/03/30 04:16:51;;;;;;;14.05;7.90;;;8.30;70.10;;;;;;2069448;28;20023;-82
2021/03/30 04:17:52;;;;;;;12.05;7.55;;;8.30;70.10;;;;;;2072617;28;20365;-83
2021/03/30 04:18:53;;;;;;;13.57;7.97;;;8.30;70.20;;;;;;2065603;28;20030;-83
2021/03/30 04:19:54;;;;;;;13.00;7.57;;;8.30;70.20;;;;;;2067340;28;20082;-83
2021/03/30 04:20:55;;;;;;;13.13;8.20;;;8.30;70.30;;;;;;2057788;28;20552;-82
2021/03/30 04:21:56;;;;;;;12.70;8.18;;;8.30;70.40;;;;;;2069639;28;20511;-83
2021/03/30 04:22:57;;;;;;;11.63;7.28;;;8.30;70.40;;;;;;2082404;28;20060;-82
2021/03/30 04:24:01;;;;;;;12.55;7.90;;;8.30;70.40;;;;;;2074062;28;20126;-83
2021/03/30 04:25:03;;;;;;;13.52;7.97;;;8.30;70.50;;;;;;2066596;28;20045;-83
2021/03/30 04:26:04;;;;;;;13.50;7.72;;;8.30;70.50;;;;;;2082525;28;20072;-83
2021/03/30 04:27:11;;;;;;;13.23;7.97;;;8.30;70.50;;;;;;2070715;28;20062;-82
2021/03/30 04:28:11;;;;;;;11.68;7.43;;;8.30;70.50;;;;;;2067348;28;20033;-83
2021/03/30 04:29:13;;;;;;;11.68;7.32;;;8.30;70.50;;;;;;2081830;28;20032;-83
2021/03/30 04:30:14;;;;;;;12.15;7.68;;;8.30;70.50;;;;;;2080565;28;20492;-83
2021/03/30 04:31:14;;;;;;;11.52;7.38;;;8.30;70.50;;;;;;2074293;28;20558;-83
2021/03/30 04:32:15;;;;;;;12.45;7.47;;;8.30;70.60;;;;;;2076796;28;20190;-83
2021/03/30 04:33:16;;;;;;;12.85;7.43;;;8.30;70.60;;;;;;2082307;28;20590;-82
2021/03/30 04:34:16;;;;;;;13.68;8.07;;;8.30;70.70;;;;;;2082178;28;20033;-82
2021/03/30 04:35:17;;;;;;;13.18;7.95;;;8.20;70.70;;;;;;2081272;28;20446;-83
2021/03/30 04:36:18;;;;;;;13.18;8.10;;;8.20;70.70;;;;;;2077947;28;20025;-82
2021/03/30 04:37:19;;;;;;;13.18;7.88;;;8.20;70.70;;;;;;2065949;28;20117;-82
2021/03/30 04:38:20;;;;;;;14.32;8.52;;;8.20;70.80;;;;;;2065824;28;20527;-82
2021/03/30 04:39:21;;;;;;;12.65;7.75;;;8.20;70.80;;;;;;2066090;28;20026;-82
2021/03/30 04:40:23;;;;;;;14.68;8.65;;;8.20;70.80;;;;;;2071279;28;20038;-82
2021/03/30 04:41:24;;;;;;;12.63;7.80;;;8.20;70.80;;;;;;2074339;28;20029;-82
2021/03/30 04:42:25;;;;;;;13.82;8.25;;;8.20;70.80;;;;;;2082611;28;20411;-83
2021/03/30 04:43:25;;;;;;;14.00;8.38;;;8.20;70.80;;;;;;2082040;28;20059;-82
2021/03/30 04:44:26;;;;;;;13.60;8.07;;;8.20;70.90;;;;;;2073513;28;20065;-82
2021/03/30 04:45:27;;;;;;;13.55;8.30;;;8.20;70.90;;;;;;2080419;28;20052;-82
2021/03/30 04:46:27;;;;;;;12.38;7.80;;;8.20;70.90;;;;;;2073852;28;20489;-83
2021/03/30 04:47:28;;;;;;;13.85;8.70;;;8.20;70.90;;;;;;2073965;28;20065;-82
2021/03/30 04:48:28;;;;;;;12.57;7.88;;;8.20;71.00;;;;;;2065880;28;20041;-83
2021/03/30 04:49:29;;;;;;;13.65;8.68;;;8.20;70.90;;;;;;2085390;28;20018;-83
2021/03/30 04:50:30;;;;;;;16.88;11.00;;;8.20;71.00;;;;;;2082052;28;20470;-83
2021/03/30 04:51:30;;;;;;;22.27;13.70;;;8.20;71.00;;;;;;2066235;28;20030;-82
2021/03/30 04:52:31;;;;;;;19.75;13.77;;;8.10;71.00;;;;;;2073778;28;20026;-82
2021/03/30 04:53:33;;;;;;;21.17;14.93;;;8.10;71.00;;;;;;2073992;28;20026;-82
2021/03/30 04:54:34;;;;;;;22.60;14.88;;;8.10;71.00;;;;;;2073666;28;20379;-82
2021/03/30 04:55:34;;;;;;;22.52;15.05;;;8.10;71.00;;;;;;2073269;28;20033;-82
2021/03/30 04:56:36;;;;;;;21.25;14.82;;;8.10;71.10;;;;;;2068672;28;20038;-83
2021/03/30 04:57:37;;;;;;;23.40;14.57;;;8.10;71.10;;;;;;2074062;28;20034;-83
2021/03/30 04:58:38;;;;;;;20.40;14.50;;;8.10;71.10;;;;;;2065997;28;20030;-83
2021/03/30 04:59:38;;;;;;;19.73;13.98;;;8.10;71.20;;;;;;2068159;28;20092;-83
2021/03/30 05:00:39;;;;;;;21.15;14.50;;;8.10;71.20;;;;;;2070676;28;20038;-83
2021/03/30 05:01:40;;;;;;;21.83;14.80;;;8.10;71.20;;;;;;2065273;28;20050;-82
2021/03/30 05:02:40;;;;;;;20.88;14.70;;;8.10;71.30;;;;;;2084037;28;20047;-82
2021/03/30 05:03:41;;;;;;;21.92;14.77;;;8.10;71.30;;;;;;2082058;28;20033;-83
2021/03/30 05:04:41;;;;;;;18.02;12.73;;;8.10;71.30;;;;;;2064379;28;20031;-82
2021/03/30 05:05:42;;;;;;;18.17;13.23;;;8.10;71.30;;;;;;2065156;28;20131;-82
2021/03/30 05:06:43;;;;;;;18.58;12.57;;;8.10;72.00;;;;;;2068710;28;20586;-83
2021/03/30 05:07:44;;;;;;;18.05;11.80;;;8.10;71.30;;;;;;2087133;28;20112;-83
2021/03/30 05:08:44;;;;;;;18.20;11.38;;;8.10;71.40;;;;;;2073884;28;20084;-83
2021/03/30 05:09:45;;;;;;;15.38;10.05;;;8.10;71.50;;;;;;2057285;28;20078;-82
2021/03/30 05:10:49;;;;;;;17.27;10.55;;;8.10;71.40;;;;;;2073916;28;20415;-83
2021/03/30 05:11:50;;;;;;;16.67;10.43;;;8.10;71.60;;;;;;2066752;28;20027;-82
2021/03/30 05:12:50;;;;;;;16.90;10.52;;;8.10;71.60;;;;;;2065803;28;20026;-83
2021/03/30 05:13:51;;;;;;;16.05;9.57;;;8.10;71.60;;;;;;2073412;28;20022;-83
2021/03/30 05:14:52;;;;;;;16.27;9.93;;;8.00;71.50;;;;;;2082102;28;20022;-82
2021/03/30 05:15:52;;;;;;;14.93;9.10;;;8.00;71.60;;;;;;2073827;28;20026;-82
2021/03/30 05:16:53;;;;;;;16.05;9.70;;;8.00;71.60;;;;;;2065666;28;20555;-83
2021/03/30 05:17:54;;;;;;;15.27;9.43;;;8.00;71.70;;;;;;2075925;28;20057;-82
2021/03/30 05:18:54;;;;;;;16.67;9.65;;;8.10;71.70;;;;;;2083010;28;20025;-83
2021/03/30 05:19:55;;;;;;;14.43;9.00;;;8.00;71.70;;;;;;2073842;28;20555;-83
2021/03/30 05:20:56;;;;;;;15.93;8.98;;;8.00;71.70;;;;;;2082107;28;20034;-82
2021/03/30 05:21:56;;;;;;;16.00;8.98;;;8.00;71.70;;;;;;2087550;28;20021;-83
2021/03/30 05:22:57;;;;;;;15.50;9.40;;;8.00;71.80;;;;;;2081988;28;20033;-82
2021/03/30 05:23:58;;;;;;;14.30;8.65;;;8.00;71.80;;;;;;2064824;28;20058;-82
2021/03/30 05:25:00;;;;;;;14.57;9.13;;;8.10;71.90;;;;;;2073973;28;20037;-82
2021/03/30 05:26:01;;;;;;;14.75;9.48;;;8.00;71.90;;;;;;2090115;28;20119;-82
2021/03/30 05:27:01;;;;;;;15.52;9.45;;;8.00;71.90;;;;;;2073711;28;20029;-82
2021/03/30 05:28:03;;;;;;;14.88;9.45;;;8.00;71.90;;;;;;2072980;28;20485;-83
2021/03/30 05:29:04;;;;;;;15.60;8.75;;;8.00;71.90;;;;;;2088373;28;20100;-83
2021/03/30 05:30:07;;;;;;;16.60;9.73;;;8.00;71.90;;;;;;2075743;28;20492;-83
2021/03/30 05:31:09;;;;;;;15.43;9.68;;;8.00;71.90;;;;;;2065816;28;20035;-83